aviador You're here:

LFLN Decoded Metar

ST.-YAN in FRANCE
Report Time2017-08-22 11:00:00
UTC Time2017-08-22 11:11:34
Flight Rules vfr VFR
Wind100° at 05 kt
W.Decomp.*RWY 15: 3.2 kt HW 3.8 kt LCW
W.Rank100° ranks 35
Current wind is above 100° avg. (3.5)
Visibility9999 m
Phenomena:N/A
Clouds:N/A
Expected CloudBase > 5,600 ft AGL from Temp-Dew spread
CeilingNone
Temp28°C (ISA +15)
Dew Point14°C (42% RH)
Heat Index27.8°C
AAT27.4°C
QNH1018 hPa
Density Alt2,526 ft
Elevation801 ft
Report Wrong Elevation
Raw Report
METAR LFLN 221100Z AUTO 10005KT 360V150 CAVOK 28/14 Q1018 NOSIG=

Extra information for LFLN:More info

Metar Taf Metar & Taf Last 4 Metars F.Rules Stats Wind Profile Meteogram Temp Stats Airport Information Weather charts Add Link Nearby VenuesMetar ALERT Operation Metar Decoded Social comments